createdAt,value
2018-03-27T00:00:12.759Z,0
2018-03-27T00:01:22.201Z,0
2018-03-27T00:02:31.905Z,0
2018-03-27T00:03:41.608Z,0
2018-03-27T00:04:51.064Z,0
2018-03-27T00:05:59.992Z,0
2018-03-27T00:07:09.427Z,0
2018-03-27T00:08:18.882Z,0
2018-03-27T00:09:28.589Z,0
2018-03-27T00:10:38.043Z,0
2018-03-27T00:11:47.747Z,0
2018-03-27T00:12:57.707Z,0
2018-03-27T00:14:07.151Z,0
2018-03-27T00:15:17.116Z,0
2018-03-27T00:16:27.140Z,0
2018-03-27T00:17:37.110Z,0
2018-03-27T00:18:47.082Z,0
2018-03-27T00:19:56.784Z,0
2018-03-27T00:21:06.491Z,0
2018-03-27T00:22:16.181Z,0
2018-03-27T00:23:25.625Z,0
2018-03-27T00:24:35.583Z,0
2018-03-27T00:25:45.542Z,0
2018-03-27T00:26:55.535Z,0
2018-03-27T00:28:05.509Z,0
2018-03-27T00:29:15.481Z,0
2018-03-27T00:30:25.440Z,0
2018-03-27T00:31:35.391Z,0
2018-03-27T00:32:45.358Z,0
2018-03-27T00:33:55.307Z,0
2018-03-27T00:35:05.012Z,0
2018-03-27T00:36:14.979Z,0
2018-03-27T00:37:24.684Z,0
2018-03-27T00:38:34.136Z,0
2018-03-27T00:39:43.583Z,0
2018-03-27T00:40:52.801Z,0
2018-03-27T00:42:02.765Z,0
2018-03-27T00:43:12.722Z,0
2018-03-27T00:44:22.415Z,0
2018-03-27T00:45:32.373Z,0
2018-03-27T00:46:42.336Z,0
2018-03-27T00:47:52.312Z,0
2018-03-27T00:49:02.276Z,0
2018-03-27T00:50:12.228Z,0
2018-03-27T00:51:21.936Z,0
2018-03-27T00:52:31.911Z,0
2018-03-27T00:53:41.619Z,0
2018-03-27T00:54:51.337Z,0
2018-03-27T00:56:01.049Z,0
2018-03-27T00:57:11.008Z,0
2018-03-27T00:58:20.973Z,0
2018-03-27T00:59:30.936Z,0
2018-03-27T01:00:40.635Z,0
2018-03-27T01:01:50.587Z,0
2018-03-27T01:03:00.566Z,0
2018-03-27T01:04:10.646Z,0
2018-03-27T01:05:20.347Z,0
2018-03-27T01:06:30.055Z,0
2018-03-27T01:07:40.020Z,0
2018-03-27T01:08:49.976Z,0
2018-03-27T01:09:59.678Z,0
2018-03-27T01:11:09.644Z,0
2018-03-27T01:12:19.620Z,0
2018-03-27T01:13:29.636Z,0
2018-03-27T01:14:39.341Z,0
2018-03-27T01:15:49.290Z,0
2018-03-27T01:16:58.757Z,0
2018-03-27T01:18:08.454Z,0
2018-03-27T01:19:18.158Z,0
2018-03-27T01:20:27.636Z,0
2018-03-27T01:21:37.337Z,0
2018-03-27T01:22:47.296Z,0
2018-03-27T01:23:57.011Z,0
2018-03-27T01:25:06.727Z,0
2018-03-27T01:26:16.683Z,0
2018-03-27T01:27:26.385Z,0
2018-03-27T01:28:36.352Z,0
2018-03-27T01:29:46.308Z,0
2018-03-27T01:30:56.071Z,0
2018-03-27T01:32:06.024Z,0
2018-03-27T01:33:15.727Z,0
2018-03-27T01:34:25.435Z,0
2018-03-27T01:35:35.396Z,0
2018-03-27T01:36:44.577Z,0
2018-03-27T01:37:54.295Z,0
2018-03-27T01:39:04.276Z,0
2018-03-27T01:40:14.245Z,0
2018-03-27T01:41:23.695Z,0
2018-03-27T01:42:33.389Z,0
2018-03-27T01:43:43.079Z,0
2018-03-27T01:44:52.796Z,0
2018-03-27T01:46:02.507Z,0
2018-03-27T01:47:11.947Z,0
2018-03-27T01:48:21.645Z,0
2018-03-27T01:49:31.348Z,0
2018-03-27T01:50:41.334Z,0
2018-03-27T01:51:51.031Z,0
2018-03-27T01:53:00.721Z,0
2018-03-27T01:54:10.695Z,0
2018-03-27T01:55:19.888Z,0
2018-03-27T01:56:29.859Z,0
2018-03-27T01:57:39.813Z,0
2018-03-27T01:58:49.250Z,0
2018-03-27T01:59:59.217Z,0
2018-03-27T02:01:09.176Z,0
2018-03-27T02:02:19.154Z,0
2018-03-27T02:03:28.585Z,0
2018-03-27T02:04:38.552Z,0
2018-03-27T02:05:48.255Z,0
2018-03-27T02:06:58.234Z,0
2018-03-27T02:08:08.196Z,0
2018-03-27T02:09:18.162Z,0
2018-03-27T02:10:27.865Z,0
2018-03-27T02:11:37.819Z,0
2018-03-27T02:12:47.788Z,0
2018-03-27T02:13:57.746Z,0
2018-03-27T02:15:07.732Z,0
2018-03-27T02:16:17.694Z,0
2018-03-27T02:17:27.543Z,0
2018-03-27T02:18:37.502Z,0
2018-03-27T02:19:47.216Z,0
2018-03-27T02:20:57.183Z,0
2018-03-27T02:22:07.202Z,0
2018-03-27T02:23:17.185Z,0
2018-03-27T02:24:26.610Z,0
2018-03-27T02:25:36.337Z,0
2018-03-27T02:26:46.307Z,0
2018-03-27T02:27:56.022Z,0
2018-03-27T02:29:05.731Z,0
2018-03-27T02:30:15.706Z,0
2018-03-27T02:31:25.692Z,0
2018-03-27T02:32:35.650Z,0
2018-03-27T02:33:45.622Z,0
2018-03-27T02:34:55.876Z,0
2018-03-27T02:36:05.590Z,0
2018-03-27T02:37:15.310Z,0
2018-03-27T02:38:25.023Z,0
2018-03-27T02:39:34.980Z,0
2018-03-27T02:40:44.704Z,0
2018-03-27T02:41:54.418Z,0
2018-03-27T02:43:04.134Z,0
2018-03-27T02:44:13.867Z,0
2018-03-27T02:45:24.087Z,0
2018-03-27T02:46:33.796Z,0
2018-03-27T02:47:43.499Z,0
2018-03-27T02:48:52.961Z,0
2018-03-27T02:50:02.722Z,0
2018-03-27T02:51:11.900Z,0
2018-03-27T02:52:21.605Z,0
2018-03-27T02:53:31.059Z,0
2018-03-27T02:54:40.995Z,0
2018-03-27T02:55:50.970Z,0
2018-03-27T02:57:00.948Z,0
2018-03-27T02:58:10.905Z,0
2018-03-27T02:59:20.608Z,0
2018-03-27T03:00:30.572Z,0
2018-03-27T03:01:40.280Z,0
2018-03-27T03:02:49.984Z,0
2018-03-27T03:03:59.965Z,0
2018-03-27T03:05:09.957Z,0
2018-03-27T03:06:19.916Z,0
2018-03-27T03:07:29.626Z,0
2018-03-27T03:08:39.348Z,0
2018-03-27T03:09:49.063Z,0
2018-03-27T03:10:58.502Z,0
2018-03-27T03:12:08.211Z,0
2018-03-27T03:13:18.171Z,0
2018-03-27T03:14:27.856Z,0
2018-03-27T03:15:37.558Z,0
2018-03-27T03:16:47.260Z,0
2018-03-27T03:17:56.693Z,0
2018-03-27T03:19:06.430Z,0
2018-03-27T03:20:15.867Z,0
2018-03-27T03:21:25.843Z,0
2018-03-27T03:22:35.541Z,0
2018-03-27T03:23:45.493Z,0
2018-03-27T03:24:55.190Z,0
2018-03-27T03:26:04.888Z,0
2018-03-27T03:27:15.102Z,0
2018-03-27T03:28:24.299Z,0
2018-03-27T03:29:33.998Z,0
2018-03-27T03:30:43.451Z,0
2018-03-27T03:31:53.440Z,0
2018-03-27T03:33:03.131Z,0
2018-03-27T03:34:13.096Z,0
2018-03-27T03:35:22.799Z,0
2018-03-27T03:36:32.132Z,0
2018-03-27T03:37:41.821Z,0
2018-03-27T03:38:51.512Z,0
2018-03-27T03:40:01.467Z,0
2018-03-27T03:41:11.172Z,0
2018-03-27T03:42:20.885Z,0
2018-03-27T03:43:30.587Z,0
2018-03-27T03:44:40.294Z,0
2018-03-27T03:45:49.470Z,0
2018-03-27T03:46:59.170Z,0
2018-03-27T03:48:09.113Z,0
2018-03-27T03:49:18.547Z,0
2018-03-27T03:50:27.989Z,0
2018-03-27T03:51:37.696Z,0
2018-03-27T03:52:47.399Z,0
2018-03-27T03:53:57.354Z,0
2018-03-27T03:55:06.797Z,0
2018-03-27T03:56:16.495Z,0
2018-03-27T03:57:26.451Z,0
2018-03-27T03:58:36.412Z,0
2018-03-27T03:59:46.385Z,0
2018-03-27T04:00:56.104Z,0
2018-03-27T04:02:05.798Z,0
2018-03-27T04:03:15.766Z,0
2018-03-27T04:04:25.756Z,0
2018-03-27T04:05:35.706Z,0
2018-03-27T04:06:45.411Z,0
2018-03-27T04:07:55.107Z,0
2018-03-27T04:09:05.067Z,0
2018-03-27T04:10:14.246Z,0
2018-03-27T04:11:24.320Z,0
2018-03-27T04:12:34.025Z,0
2018-03-27T04:13:44.005Z,0
2018-03-27T04:14:53.179Z,0
2018-03-27T04:16:02.884Z,0
2018-03-27T04:17:12.891Z,0
2018-03-27T04:18:22.593Z,0
2018-03-27T04:19:32.583Z,0
2018-03-27T04:20:42.273Z,0
2018-03-27T04:21:52.235Z,0
2018-03-27T04:23:02.223Z,0
2018-03-27T04:24:11.918Z,0
2018-03-27T04:25:21.367Z,0
2018-03-27T04:26:31.072Z,0
2018-03-27T04:27:40.772Z,0
2018-03-27T04:28:50.467Z,0
2018-03-27T04:30:00.168Z,0
2018-03-27T04:31:10.133Z,0
2018-03-27T04:32:20.106Z,0
2018-03-27T04:33:29.808Z,0
2018-03-27T04:34:39.513Z,0
2018-03-27T04:35:49.479Z,0
2018-03-27T04:36:59.434Z,0
2018-03-27T04:38:09.392Z,0
2018-03-27T04:39:19.094Z,0
2018-03-27T04:40:28.802Z,0
2018-03-27T04:41:38.779Z,0
2018-03-27T04:42:48.766Z,0
2018-03-27T04:43:58.728Z,0
2018-03-27T04:45:08.704Z,0
2018-03-27T04:46:18.664Z,5
2018-03-27T04:47:27.835Z,5
2018-03-27T04:48:37.543Z,5
2018-03-27T04:49:47.248Z,5
2018-03-27T04:50:56.702Z,10
2018-03-27T04:52:06.665Z,10
2018-03-27T04:53:16.623Z,10
2018-03-27T04:54:26.320Z,10
2018-03-27T04:55:36.283Z,15
2018-03-27T04:56:45.979Z,15
2018-03-27T04:57:55.424Z,15
2018-03-27T04:59:05.122Z,20
2018-03-27T05:00:15.090Z,20
2018-03-27T05:01:24.789Z,25
2018-03-27T05:02:34.578Z,25
2018-03-27T05:03:44.525Z,30
2018-03-27T05:04:54.226Z,30
2018-03-27T05:06:03.942Z,35
2018-03-27T05:07:13.384Z,35
2018-03-27T05:08:23.356Z,40
2018-03-27T05:09:33.060Z,40
2018-03-27T05:10:43.019Z,40
2018-03-27T05:11:52.724Z,40
2018-03-27T05:13:02.685Z,35
2018-03-27T05:14:12.128Z,35
2018-03-27T05:15:21.826Z,35
2018-03-27T05:16:31.524Z,30
2018-03-27T05:17:41.500Z,20
2018-03-27T05:18:51.467Z,15
2018-03-27T05:20:01.449Z,15
2018-03-27T05:21:11.443Z,15
2018-03-27T05:22:21.410Z,20
2018-03-27T05:23:31.179Z,25
2018-03-27T05:24:41.164Z,30
2018-03-27T05:25:51.118Z,40
2018-03-27T05:27:00.833Z,45
2018-03-27T05:28:10.548Z,55
2018-03-27T05:29:20.257Z,60
2018-03-27T05:30:29.981Z,65
2018-03-27T05:31:39.949Z,65
2018-03-27T05:32:49.981Z,70
2018-03-27T05:33:59.958Z,75
2018-03-27T05:35:09.918Z,80
2018-03-27T05:36:19.905Z,85
2018-03-27T05:37:29.865Z,90
2018-03-27T05:38:39.922Z,95
2018-03-27T05:39:49.043Z,100
2018-03-27T05:40:58.239Z,105
2018-03-27T05:42:08.224Z,105
2018-03-27T05:43:17.916Z,105
2018-03-27T05:44:27.366Z,105
2018-03-27T05:45:37.073Z,105
2018-03-27T05:46:47.166Z,100
2018-03-27T05:47:57.148Z,95
2018-03-27T05:49:06.844Z,90
2018-03-27T05:50:16.545Z,85
2018-03-27T05:51:26.335Z,85
2018-03-27T05:52:36.304Z,85
2018-03-27T05:53:45.486Z,90
2018-03-27T05:54:54.929Z,95
2018-03-27T05:56:04.848Z,95
2018-03-27T05:57:14.615Z,95
2018-03-27T05:58:24.324Z,105
2018-03-27T05:59:34.086Z,110
2018-03-27T06:00:43.543Z,125
2018-03-27T06:01:53.500Z,135
2018-03-27T06:03:03.207Z,150
2018-03-27T06:04:12.653Z,160
2018-03-27T06:05:22.399Z,165
2018-03-27T06:06:31.856Z,160
2018-03-27T06:07:41.069Z,155
2018-03-27T06:08:51.308Z,150
2018-03-27T06:10:01.285Z,150
2018-03-27T06:11:10.269Z,155
2018-03-27T06:12:19.977Z,160
2018-03-27T06:13:29.694Z,175
2018-03-27T06:14:39.649Z,190
2018-03-27T06:15:49.369Z,200
2018-03-27T06:16:59.332Z,200
2018-03-27T06:18:09.054Z,210
2018-03-27T06:19:19.022Z,220
2018-03-27T06:20:28.723Z,225
2018-03-27T06:21:38.165Z,230
2018-03-27T06:22:48.130Z,235
2018-03-27T06:23:57.836Z,230
2018-03-27T06:25:07.277Z,230
2018-03-27T06:26:17.235Z,225
2018-03-27T06:27:27.103Z,220
2018-03-27T06:28:36.568Z,220
2018-03-27T06:29:46.277Z,215
2018-03-27T06:30:56.231Z,215
2018-03-27T06:32:05.666Z,215
2018-03-27T06:33:15.368Z,215
2018-03-27T06:34:25.076Z,215
2018-03-27T06:35:35.063Z,225
2018-03-27T06:36:44.759Z,225
2018-03-27T06:37:54.726Z,215
2018-03-27T06:39:04.427Z,210
2018-03-27T06:40:14.209Z,210
2018-03-27T06:41:24.186Z,215
2018-03-27T06:42:33.630Z,210
2018-03-27T06:43:43.059Z,210
2018-03-27T06:44:53.077Z,205
2018-03-27T06:46:02.792Z,205
2018-03-27T06:47:12.765Z,205
2018-03-27T06:48:22.724Z,220
2018-03-27T06:49:32.429Z,230
2018-03-27T06:50:42.136Z,245
2018-03-27T06:51:52.121Z,260
2018-03-27T06:53:01.573Z,265
2018-03-27T06:54:11.542Z,280
2018-03-27T06:55:20.988Z,305
2018-03-27T06:56:30.946Z,335
2018-03-27T06:57:40.915Z,360
2018-03-27T06:58:50.611Z,370
2018-03-27T07:00:00.354Z,370
2018-03-27T07:01:10.063Z,370
2018-03-27T07:02:19.554Z,375
2018-03-27T07:03:29.525Z,385
2018-03-27T07:04:39.585Z,400
2018-03-27T07:05:49.793Z,415
2018-03-27T07:06:59.628Z,430
2018-03-27T07:08:09.623Z,440
2018-03-27T07:09:19.672Z,455
2018-03-27T07:10:29.660Z,455
2018-03-27T07:11:39.387Z,450
2018-03-27T07:12:49.235Z,440
2018-03-27T07:13:59.337Z,435
2018-03-27T07:15:09.462Z,440
2018-03-27T07:16:19.443Z,450
2018-03-27T07:17:29.462Z,445
2018-03-27T07:18:39.553Z,450
2018-03-27T07:19:49.625Z,455
2018-03-27T07:20:59.693Z,460
2018-03-27T07:22:09.666Z,475
2018-03-27T07:23:19.648Z,470
2018-03-27T07:24:29.619Z,460
2018-03-27T07:25:39.605Z,450
2018-03-27T07:26:49.312Z,440
2018-03-27T07:27:59.299Z,425
2018-03-27T07:29:09.295Z,410
2018-03-27T07:30:19.271Z,395
2018-03-27T07:31:29.244Z,375
2018-03-27T07:32:39.335Z,375
2018-03-27T07:33:49.305Z,390
2018-03-27T07:34:59.288Z,415
2018-03-27T07:36:09.019Z,430
2018-03-27T07:37:18.985Z,440
2018-03-27T07:38:28.756Z,415
2018-03-27T07:39:38.472Z,370
2018-03-27T07:40:48.470Z,360
2018-03-27T07:41:58.199Z,365
2018-03-27T07:43:07.915Z,360
2018-03-27T07:44:17.920Z,355
2018-03-27T07:45:27.630Z,350
2018-03-27T07:46:37.069Z,350
2018-03-27T07:47:47.027Z,355
2018-03-27T07:48:56.745Z,390
2018-03-27T07:50:06.721Z,415
2018-03-27T07:51:16.692Z,430
2018-03-27T07:52:26.679Z,445
2018-03-27T07:53:36.654Z,440
2018-03-27T07:54:46.369Z,430
2018-03-27T07:55:56.062Z,425
2018-03-27T07:57:06.047Z,430
2018-03-27T07:58:15.840Z,415
2018-03-27T07:59:25.568Z,435
2018-03-27T08:00:35.033Z,450
2018-03-27T08:01:45.005Z,475
2018-03-27T08:02:54.728Z,500
2018-03-27T08:04:04.707Z,505
2018-03-27T08:05:14.671Z,480
2018-03-27T08:06:24.657Z,490
2018-03-27T08:07:34.630Z,505
2018-03-27T08:08:44.585Z,510
2018-03-27T08:09:54.298Z,520
2018-03-27T08:11:04.596Z,530
2018-03-27T08:12:14.572Z,550
2018-03-27T08:13:24.305Z,575
2018-03-27T08:14:34.286Z,625
2018-03-27T08:15:43.993Z,660
2018-03-27T08:16:54.028Z,640
2018-03-27T08:18:04.005Z,615
2018-03-27T08:19:13.966Z,620
2018-03-27T08:20:23.690Z,615
2018-03-27T08:21:33.403Z,665
2018-03-27T08:22:43.379Z,570
2018-03-27T08:23:53.435Z,560
2018-03-27T08:25:03.113Z,545
2018-03-27T08:26:12.865Z,545
2018-03-27T08:27:22.835Z,545
2018-03-27T08:28:32.558Z,535
2018-03-27T08:29:42.661Z,530
2018-03-27T08:30:52.088Z,515
2018-03-27T08:32:01.820Z,495
2018-03-27T08:33:11.810Z,480
2018-03-27T08:34:21.792Z,465
2018-03-27T08:35:31.823Z,460
2018-03-27T08:36:41.799Z,465
2018-03-27T08:37:52.027Z,480
2018-03-27T08:39:02.010Z,490
2018-03-27T08:40:11.997Z,485
2018-03-27T08:41:21.968Z,480
2018-03-27T08:42:31.668Z,485
2018-03-27T08:43:41.418Z,495
2018-03-27T08:44:51.134Z,520
2018-03-27T08:46:01.093Z,555
2018-03-27T08:47:10.804Z,570
2018-03-27T08:48:20.778Z,570
2018-03-27T08:49:30.760Z,570
2018-03-27T08:50:40.725Z,575
2018-03-27T08:51:50.444Z,580
2018-03-27T08:53:00.409Z,580
2018-03-27T08:54:10.585Z,585
2018-03-27T08:55:20.636Z,630
2018-03-27T08:56:30.596Z,685
2018-03-27T08:57:40.563Z,705
2018-03-27T08:58:50.533Z,895
2018-03-27T09:00:00.587Z,1290
2018-03-27T09:01:10.668Z,1290
2018-03-27T09:02:19.593Z,1425
2018-03-27T09:03:29.339Z,1525
2018-03-27T09:04:39.516Z,1445
2018-03-27T09:05:48.972Z,785
2018-03-27T09:06:58.965Z,690
2018-03-27T09:08:08.940Z,635
2018-03-27T09:09:18.403Z,490
2018-03-27T09:10:28.397Z,480
2018-03-27T09:11:38.369Z,480
2018-03-27T09:12:48.336Z,500
2018-03-27T09:13:58.312Z,565
2018-03-27T09:15:08.317Z,565
2018-03-27T09:16:17.762Z,820
2018-03-27T09:17:27.725Z,1435
2018-03-27T09:18:37.430Z,1330
2018-03-27T09:19:47.155Z,1310
2018-03-27T09:20:57.122Z,1390
2018-03-27T09:22:07.109Z,1330
2018-03-27T09:23:16.890Z,1200
2018-03-27T09:24:26.861Z,1745
2018-03-27T09:25:36.841Z,2105
2018-03-27T09:26:46.553Z,1665
2018-03-27T09:27:56.549Z,1750
2018-03-27T09:29:06.523Z,1660
2018-03-27T09:30:16.515Z,1735
2018-03-27T09:31:26.524Z,1755
2018-03-27T09:32:35.989Z,1690
2018-03-27T09:33:45.969Z,775
2018-03-27T09:34:55.182Z,605
2018-03-27T09:36:04.906Z,585
2018-03-27T09:37:14.895Z,590
2018-03-27T09:38:24.611Z,615
2018-03-27T09:39:34.345Z,685
2018-03-27T09:40:44.330Z,750
2018-03-27T09:41:54.311Z,585
2018-03-27T09:43:04.319Z,555
2018-03-27T09:44:14.027Z,545
2018-03-27T09:45:23.758Z,545
2018-03-27T09:46:33.738Z,555
2018-03-27T09:47:43.203Z,580
2018-03-27T09:48:52.945Z,600
2018-03-27T09:50:02.411Z,605
2018-03-27T09:51:12.387Z,625
2018-03-27T09:52:21.874Z,670
2018-03-27T09:53:31.330Z,885
2018-03-27T09:54:41.312Z,760
2018-03-27T09:55:51.285Z,815
2018-03-27T09:57:01.253Z,855
2018-03-27T09:58:10.980Z,880
2018-03-27T09:59:20.685Z,880
2018-03-27T10:00:30.407Z,870
2018-03-27T10:01:40.133Z,870
2018-03-27T10:02:50.127Z,860
2018-03-27T10:03:59.316Z,830
2018-03-27T10:05:08.997Z,820
2018-03-27T10:06:18.453Z,820
2018-03-27T10:07:28.432Z,820
2018-03-27T10:08:37.896Z,835
2018-03-27T10:09:47.872Z,840
2018-03-27T10:10:57.593Z,1485
2018-03-27T10:12:07.051Z,2165
2018-03-27T10:13:16.769Z,2310
2018-03-27T10:14:26.487Z,2215
2018-03-27T10:15:36.200Z,2250
2018-03-27T10:16:45.929Z,2460
2018-03-27T10:17:55.909Z,2615
2018-03-27T10:19:05.641Z,2510
2018-03-27T10:20:15.113Z,2505
2018-03-27T10:21:24.565Z,2485
2018-03-27T10:22:34.549Z,2520
2018-03-27T10:23:44.083Z,2545
2018-03-27T10:24:54.113Z,2550
2018-03-27T10:26:03.581Z,2960
2018-03-27T10:27:13.563Z,2840
2018-03-27T10:28:23.546Z,2545
2018-03-27T10:29:33.526Z,2600
2018-03-27T10:30:43.531Z,2695
2018-03-27T10:31:53.260Z,2790
2018-03-27T10:33:03.063Z,2780
2018-03-27T10:34:12.859Z,2790
2018-03-27T10:35:22.368Z,2860
2018-03-27T10:36:32.355Z,2935
2018-03-27T10:37:42.337Z,1245
2018-03-27T10:38:52.314Z,1540
2018-03-27T10:40:02.290Z,1430
2018-03-27T10:41:12.009Z,1155
2018-03-27T10:42:21.458Z,1895
2018-03-27T10:43:31.433Z,990
2018-03-27T10:44:41.404Z,775
2018-03-27T10:45:51.127Z,695
2018-03-27T10:47:01.104Z,640
2018-03-27T10:48:10.825Z,610
2018-03-27T10:49:20.861Z,595
2018-03-27T10:50:30.861Z,575
2018-03-27T10:51:40.312Z,560
2018-03-27T10:52:50.306Z,555
2018-03-27T10:54:00.078Z,555
2018-03-27T10:55:10.055Z,555
2018-03-27T10:56:19.798Z,550
2018-03-27T10:57:29.776Z,555
2018-03-27T10:58:39.495Z,560
2018-03-27T10:59:49.209Z,575
2018-03-27T11:00:59.198Z,585
2018-03-27T11:02:09.164Z,600
2018-03-27T11:03:19.145Z,615
2018-03-27T11:04:29.122Z,620
2018-03-27T11:05:38.842Z,625
2018-03-27T11:06:48.817Z,645
2018-03-27T11:07:58.280Z,650
2018-03-27T11:09:08.004Z,660
2018-03-27T11:10:17.459Z,665
2018-03-27T11:11:27.197Z,660
2018-03-27T11:12:37.179Z,655
2018-03-27T11:13:46.125Z,645
2018-03-27T11:14:55.340Z,650
2018-03-27T11:16:05.072Z,640
2018-03-27T11:17:14.539Z,635
2018-03-27T11:18:24.515Z,625
2018-03-27T11:19:34.573Z,605
2018-03-27T11:20:44.543Z,590
2018-03-27T11:21:54.529Z,585
2018-03-27T11:23:04.232Z,575
2018-03-27T11:24:14.474Z,565
2018-03-27T11:25:24.448Z,545
2018-03-27T11:26:34.447Z,535
2018-03-27T11:27:43.912Z,520
2018-03-27T11:28:53.893Z,495
2018-03-27T11:30:03.358Z,485
2018-03-27T11:31:13.096Z,460
2018-03-27T11:32:22.859Z,445
2018-03-27T11:33:32.314Z,430
2018-03-27T11:34:41.508Z,415
2018-03-27T11:35:51.480Z,395
2018-03-27T11:37:01.186Z,380
2018-03-27T11:38:11.156Z,365
2018-03-27T11:39:21.149Z,355
2018-03-27T11:40:30.612Z,350
2018-03-27T11:41:40.626Z,335
2018-03-27T11:42:50.607Z,325
2018-03-27T11:44:00.705Z,315
2018-03-27T11:45:10.693Z,310
2018-03-27T11:46:20.421Z,305
2018-03-27T11:47:30.403Z,305
2018-03-27T11:48:40.397Z,305
2018-03-27T11:49:49.851Z,305
2018-03-27T11:50:59.330Z,315
2018-03-27T11:52:08.778Z,310
2018-03-27T11:53:18.765Z,315
2018-03-27T11:54:28.748Z,320
2018-03-27T11:55:38.209Z,330
2018-03-27T11:56:48.172Z,340
2018-03-27T11:57:58.145Z,345
2018-03-27T11:59:08.130Z,355
2018-03-27T12:00:17.852Z,355
2018-03-27T12:01:27.599Z,360
2018-03-27T12:02:37.047Z,355
2018-03-27T12:03:46.756Z,355
2018-03-27T12:04:56.728Z,355
2018-03-27T12:06:06.697Z,355
2018-03-27T12:07:16.410Z,360
2018-03-27T12:08:26.392Z,370
2018-03-27T12:09:36.122Z,385
2018-03-27T12:10:46.098Z,395
2018-03-27T12:11:56.085Z,415
2018-03-27T12:13:05.803Z,430
2018-03-27T12:14:15.506Z,455
2018-03-27T12:15:25.689Z,480
2018-03-27T12:16:35.409Z,510
2018-03-27T12:17:45.404Z,545
2018-03-27T12:18:55.370Z,580
2018-03-27T12:20:05.087Z,625
2018-03-27T12:21:14.536Z,660
2018-03-27T12:22:23.733Z,685
2018-03-27T12:23:33.428Z,700
2018-03-27T12:24:42.888Z,710
2018-03-27T12:25:52.888Z,700
2018-03-27T12:27:02.332Z,675
2018-03-27T12:28:12.061Z,650
2018-03-27T12:29:21.766Z,635
2018-03-27T12:30:31.491Z,625
2018-03-27T12:31:41.541Z,620
2018-03-27T12:32:51.003Z,625
2018-03-27T12:34:00.462Z,640
2018-03-27T12:35:09.669Z,670
2018-03-27T12:36:19.637Z,695
2018-03-27T12:37:28.820Z,710
2018-03-27T12:38:38.533Z,720
2018-03-27T12:39:48.517Z,740
2018-03-27T12:40:58.228Z,755
2018-03-27T12:42:08.202Z,770
2018-03-27T12:43:17.919Z,785
2018-03-27T12:44:27.686Z,795
2018-03-27T12:45:37.132Z,820
2018-03-27T12:46:46.851Z,855
2018-03-27T12:47:56.606Z,890
2018-03-27T12:49:06.312Z,940
2018-03-27T12:50:16.310Z,1005
2018-03-27T12:51:26.350Z,1070
2018-03-27T12:52:36.062Z,1075
2018-03-27T12:53:45.786Z,1075
2018-03-27T12:54:55.519Z,1065
2018-03-27T12:56:05.238Z,1060
2018-03-27T12:57:14.955Z,1050
2018-03-27T12:58:24.685Z,1100
2018-03-27T12:59:34.399Z,1155
2018-03-27T13:00:44.135Z,1245
2018-03-27T13:01:54.137Z,1350
2018-03-27T13:03:03.853Z,1255
2018-03-27T13:04:13.574Z,1220
2018-03-27T13:05:22.782Z,1180
2018-03-27T13:06:32.772Z,1140
2018-03-27T13:07:42.751Z,1095
2018-03-27T13:08:52.469Z,1080
2018-03-27T13:10:02.472Z,1110
2018-03-27T13:11:12.185Z,1140
2018-03-27T13:12:22.167Z,1125
2018-03-27T13:13:31.352Z,1035
2018-03-27T13:14:40.840Z,990
2018-03-27T13:15:50.818Z,965
2018-03-27T13:17:00.268Z,1000
2018-03-27T13:18:10.272Z,985
2018-03-27T13:19:19.990Z,1000
2018-03-27T13:20:29.480Z,1000
2018-03-27T13:21:39.461Z,995
2018-03-27T13:22:48.936Z,985
2018-03-27T13:23:58.640Z,970
2018-03-27T13:25:08.618Z,945
2018-03-27T13:26:18.588Z,920
2018-03-27T13:27:28.056Z,905
2018-03-27T13:28:38.049Z,880
2018-03-27T13:29:48.033Z,870
2018-03-27T13:30:57.998Z,855
2018-03-27T13:32:07.978Z,865
2018-03-27T13:33:17.435Z,885
2018-03-27T13:34:27.417Z,895
2018-03-27T13:35:37.384Z,900
2018-03-27T13:36:47.377Z,910
2018-03-27T13:37:57.095Z,940
2018-03-27T13:39:06.771Z,965
2018-03-27T13:40:16.740Z,980
2018-03-27T13:41:26.456Z,1000
2018-03-27T13:42:36.419Z,1000
2018-03-27T13:43:46.385Z,1025
2018-03-27T13:44:56.106Z,1035
2018-03-27T13:46:05.806Z,1025
2018-03-27T13:47:15.782Z,930
2018-03-27T13:48:25.503Z,885
2018-03-27T13:49:34.968Z,865
2018-03-27T13:50:44.956Z,835
2018-03-27T13:51:54.419Z,825
2018-03-27T13:53:04.138Z,860
2018-03-27T13:54:14.129Z,900
2018-03-27T13:55:23.582Z,895
2018-03-27T13:56:33.036Z,865
2018-03-27T13:57:42.769Z,815
2018-03-27T13:58:52.216Z,800
2018-03-27T14:00:02.183Z,805
2018-03-27T14:01:11.634Z,860
2018-03-27T14:02:21.087Z,945
2018-03-27T14:03:31.054Z,1080
2018-03-27T14:04:41.018Z,1175
2018-03-27T14:05:50.480Z,1435
2018-03-27T14:07:00.195Z,3075
2018-03-27T14:08:09.895Z,3070
2018-03-27T14:09:19.627Z,3070
2018-03-27T14:10:29.401Z,2985
2018-03-27T14:11:39.114Z,2960
2018-03-27T14:12:48.575Z,3005
2018-03-27T14:13:58.569Z,2990
2018-03-27T14:15:08.760Z,2065
2018-03-27T14:16:18.503Z,2400
2018-03-27T14:17:28.488Z,2865
2018-03-27T14:18:38.489Z,2925
2018-03-27T14:19:48.189Z,2950
2018-03-27T14:20:58.177Z,2940
2018-03-27T14:22:08.160Z,2920
2018-03-27T14:23:17.638Z,2990
2018-03-27T14:24:27.616Z,2905
2018-03-27T14:25:36.839Z,2815
2018-03-27T14:26:46.599Z,2880
2018-03-27T14:27:56.577Z,2820
2018-03-27T14:29:06.308Z,2615
2018-03-27T14:30:16.027Z,2575
2018-03-27T14:31:26.076Z,2625
2018-03-27T14:32:35.822Z,2900
2018-03-27T14:33:45.289Z,2970
2018-03-27T14:34:55.023Z,2815
2018-03-27T14:36:04.750Z,2245
2018-03-27T14:37:14.482Z,1425
2018-03-27T14:38:24.625Z,1200
2018-03-27T14:39:34.337Z,1180
2018-03-27T14:40:44.312Z,1135
2018-03-27T14:41:54.306Z,1115
2018-03-27T14:43:04.287Z,1955
2018-03-27T14:44:14.254Z,1665
2018-03-27T14:45:24.236Z,2230
2018-03-27T14:46:34.236Z,2545
2018-03-27T14:47:44.218Z,2190
2018-03-27T14:48:54.192Z,2190
2018-03-27T14:50:04.186Z,2475
2018-03-27T14:51:14.168Z,2430
2018-03-27T14:52:24.138Z,2425
2018-03-27T14:53:33.857Z,2430
2018-03-27T14:54:43.311Z,2405
2018-03-27T14:55:53.299Z,2320
2018-03-27T14:57:03.308Z,1855
2018-03-27T14:58:12.773Z,1750
2018-03-27T14:59:22.767Z,2310
2018-03-27T15:00:32.738Z,2060
2018-03-27T15:01:42.473Z,1145
2018-03-27T15:02:52.434Z,900
2018-03-27T15:04:02.134Z,945
2018-03-27T15:05:12.379Z,1680
2018-03-27T15:06:22.109Z,1220
2018-03-27T15:07:31.834Z,1515
2018-03-27T15:08:41.533Z,1600
2018-03-27T15:09:51.508Z,2050
2018-03-27T15:11:01.488Z,940
2018-03-27T15:12:11.477Z,790
2018-03-27T15:13:21.196Z,825
2018-03-27T15:14:31.196Z,1300
2018-03-27T15:15:40.660Z,1410
2018-03-27T15:16:50.438Z,1745
2018-03-27T15:17:59.887Z,1865
2018-03-27T15:19:09.335Z,1905
2018-03-27T15:20:19.415Z,1860
2018-03-27T15:21:29.408Z,1765
2018-03-27T15:22:39.123Z,1595
2018-03-27T15:23:49.098Z,1330
2018-03-27T15:24:58.796Z,1420
2018-03-27T15:26:08.239Z,1085
2018-03-27T15:27:17.701Z,1025
2018-03-27T15:28:27.402Z,1500
2018-03-27T15:29:37.122Z,1725
2018-03-27T15:30:46.840Z,1755
2018-03-27T15:31:56.307Z,1785
2018-03-27T15:33:06.042Z,1755
2018-03-27T15:34:15.819Z,1710
2018-03-27T15:35:25.548Z,1625
2018-03-27T15:36:35.527Z,1530
2018-03-27T15:37:45.000Z,1445
2018-03-27T15:38:55.000Z,1525
2018-03-27T15:40:04.718Z,1510
2018-03-27T15:41:14.445Z,1470
2018-03-27T15:42:24.421Z,1445
2018-03-27T15:43:34.411Z,1350
2018-03-27T15:44:44.379Z,1315
2018-03-27T15:45:54.097Z,1325
2018-03-27T15:47:04.081Z,1280
2018-03-27T15:48:14.083Z,1195
2018-03-27T15:49:23.818Z,1150
2018-03-27T15:50:33.786Z,1145
2018-03-27T15:51:43.262Z,1010
2018-03-27T15:52:53.244Z,1115
2018-03-27T15:54:02.715Z,1225
2018-03-27T15:55:12.426Z,1355
2018-03-27T15:56:22.401Z,1375
2018-03-27T15:57:31.869Z,1330
2018-03-27T15:58:41.590Z,1280
2018-03-27T15:59:51.321Z,1120
2018-03-27T16:01:00.517Z,860
2018-03-27T16:02:10.509Z,835
2018-03-27T16:03:20.009Z,920
2018-03-27T16:04:29.735Z,935
2018-03-27T16:05:39.511Z,950
2018-03-27T16:06:48.971Z,905
2018-03-27T16:07:58.938Z,820
2018-03-27T16:09:08.668Z,765
2018-03-27T16:10:18.378Z,1030
2018-03-27T16:11:28.104Z,945
2018-03-27T16:12:37.042Z,995
2018-03-27T16:13:47.014Z,970
2018-03-27T16:14:56.975Z,855
2018-03-27T16:16:06.435Z,730